sensor_id;sensor_type;location;lat;lon;timestamp;P1;durP1;ratioP1;P2;durP2;ratioP2
10729;SDS011;5416;59.258;18.128;2022-08-19T00:00:50;3.97;;;3.88;;
10729;SDS011;5416;59.258;18.128;2022-08-19T00:03:17;4.15;;;4.05;;
10729;SDS011;5416;59.258;18.128;2022-08-19T00:05:45;4.43;;;4.32;;
10729;SDS011;5416;59.258;18.128;2022-08-19T00:08:12;4.28;;;4.18;;
10729;SDS011;5416;59.258;18.128;2022-08-19T00:10:40;4.38;;;4.28;;
10729;SDS011;5416;59.258;18.128;2022-08-19T00:13:08;4.43;;;4.32;;
10729;SDS011;5416;59.258;18.128;2022-08-19T00:15:35;3.80;;;3.70;;
10729;SDS011;5416;59.258;18.128;2022-08-19T00:18:03;4.10;;;4.00;;
10729;SDS011;5416;59.258;18.128;2022-08-19T00:20:30;4.15;;;4.05;;
10729;SDS011;5416;59.258;18.128;2022-08-19T00:22:57;4.43;;;4.32;;
10729;SDS011;5416;59.258;18.128;2022-08-19T00:25:24;4.78;;;4.57;;
10729;SDS011;5416;59.258;18.128;2022-08-19T00:27:53;4.43;;;4.32;;
10729;SDS011;5416;59.258;18.128;2022-08-19T00:30:20;4.07;;;3.97;;
10729;SDS011;5416;59.258;18.128;2022-08-19T00:32:48;4.37;;;4.27;;
10729;SDS011;5416;59.258;18.128;2022-08-19T00:35:15;4.40;;;4.30;;
10729;SDS011;5416;59.258;18.128;2022-08-19T00:37:43;4.95;;;4.75;;
10729;SDS011;5416;59.258;18.128;2022-08-19T00:40:11;4.28;;;4.18;;
10729;SDS011;5416;59.258;18.128;2022-08-19T00:42:38;4.30;;;4.20;;
10729;SDS011;5416;59.258;18.128;2022-08-19T00:45:11;3.60;;;3.50;;
10729;SDS011;5416;59.258;18.128;2022-08-19T00:47:39;4.20;;;4.10;;
10729;SDS011;5416;59.258;18.128;2022-08-19T00:50:07;4.50;;;4.40;;
10729;SDS011;5416;59.258;18.128;2022-08-19T00:52:37;4.15;;;4.05;;
10729;SDS011;5416;59.258;18.128;2022-08-19T00:55:07;3.90;;;3.80;;
10729;SDS011;5416;59.258;18.128;2022-08-19T00:57:37;4.32;;;4.22;;
10729;SDS011;5416;59.258;18.128;2022-08-19T01:00:06;4.10;;;4.00;;
10729;SDS011;5416;59.258;18.128;2022-08-19T01:02:36;4.22;;;4.13;;
10729;SDS011;5416;59.258;18.128;2022-08-19T01:05:05;4.00;;;3.90;;
10729;SDS011;5416;59.258;18.128;2022-08-19T01:07:33;4.32;;;4.22;;
10729;SDS011;5416;59.258;18.128;2022-08-19T01:10:00;4.20;;;4.10;;
10729;SDS011;5416;59.258;18.128;2022-08-19T01:12:28;3.60;;;3.50;;
10729;SDS011;5416;59.258;18.128;2022-08-19T01:14:55;3.88;;;3.78;;
10729;SDS011;5416;59.258;18.128;2022-08-19T01:17:23;4.20;;;4.10;;
10729;SDS011;5416;59.258;18.128;2022-08-19T01:19:52;4.72;;;4.53;;
10729;SDS011;5416;59.258;18.128;2022-08-19T01:22:20;4.00;;;3.90;;
10729;SDS011;5416;59.258;18.128;2022-08-19T01:24:50;4.13;;;4.03;;
10729;SDS011;5416;59.258;18.128;2022-08-19T01:27:18;4.47;;;4.37;;
10729;SDS011;5416;59.258;18.128;2022-08-19T01:29:46;4.03;;;3.92;;
10729;SDS011;5416;59.258;18.128;2022-08-19T01:32:14;3.67;;;3.58;;
10729;SDS011;5416;59.258;18.128;2022-08-19T01:34:41;4.00;;;3.90;;
10729;SDS011;5416;59.258;18.128;2022-08-19T01:37:12;4.33;;;4.23;;
10729;SDS011;5416;59.258;18.128;2022-08-19T01:39:40;4.07;;;3.97;;
10729;SDS011;5416;59.258;18.128;2022-08-19T01:42:09;4.40;;;4.30;;
10729;SDS011;5416;59.258;18.128;2022-08-19T01:44:37;3.90;;;3.80;;
10729;SDS011;5416;59.258;18.128;2022-08-19T01:47:05;3.88;;;3.78;;
10729;SDS011;5416;59.258;18.128;2022-08-19T01:49:34;3.90;;;3.80;;
10729;SDS011;5416;59.258;18.128;2022-08-19T01:52:02;4.00;;;3.90;;
10729;SDS011;5416;59.258;18.128;2022-08-19T01:54:29;4.03;;;3.92;;
10729;SDS011;5416;59.258;18.128;2022-08-19T01:56:59;3.92;;;3.83;;
10729;SDS011;5416;59.258;18.128;2022-08-19T01:59:28;4.00;;;3.90;;
10729;SDS011;5416;59.258;18.128;2022-08-19T02:01:57;4.32;;;4.22;;
10729;SDS011;5416;59.258;18.128;2022-08-19T02:04:24;3.95;;;3.85;;
10729;SDS011;5416;59.258;18.128;2022-08-19T02:06:52;3.80;;;3.70;;
10729;SDS011;5416;59.258;18.128;2022-08-19T02:09:19;4.40;;;4.30;;
10729;SDS011;5416;59.258;18.128;2022-08-19T02:11:46;4.03;;;3.93;;
10729;SDS011;5416;59.258;18.128;2022-08-19T02:14:14;4.05;;;3.95;;
10729;SDS011;5416;59.258;18.128;2022-08-19T02:16:43;4.20;;;4.10;;
10729;SDS011;5416;59.258;18.128;2022-08-19T02:19:10;4.20;;;4.10;;
10729;SDS011;5416;59.258;18.128;2022-08-19T02:21:37;3.83;;;3.72;;
10729;SDS011;5416;59.258;18.128;2022-08-19T02:24:05;4.00;;;3.90;;
10729;SDS011;5416;59.258;18.128;2022-08-19T02:26:32;4.22;;;4.13;;
10729;SDS011;5416;59.258;18.128;2022-08-19T02:29:00;4.00;;;3.90;;
10729;SDS011;5416;59.258;18.128;2022-08-19T02:31:27;4.13;;;4.03;;
10729;SDS011;5416;59.258;18.128;2022-08-19T02:33:56;3.92;;;3.83;;
10729;SDS011;5416;59.258;18.128;2022-08-19T02:36:23;3.85;;;3.75;;
10729;SDS011;5416;59.258;18.128;2022-08-19T02:38:51;3.95;;;3.85;;
10729;SDS011;5416;59.258;18.128;2022-08-19T02:41:18;4.47;;;4.37;;
10729;SDS011;5416;59.258;18.128;2022-08-19T02:43:46;3.85;;;3.75;;
10729;SDS011;5416;59.258;18.128;2022-08-19T02:46:14;4.07;;;3.97;;
10729;SDS011;5416;59.258;18.128;2022-08-19T02:48:43;3.90;;;3.80;;
10729;SDS011;5416;59.258;18.128;2022-08-19T02:51:16;3.67;;;3.58;;
10729;SDS011;5416;59.258;18.128;2022-08-19T02:53:44;4.18;;;4.07;;
10729;SDS011;5416;59.258;18.128;2022-08-19T02:56:11;4.28;;;4.18;;
10729;SDS011;5416;59.258;18.128;2022-08-19T02:58:39;4.10;;;4.00;;
10729;SDS011;5416;59.258;18.128;2022-08-19T03:01:06;4.07;;;3.97;;
10729;SDS011;5416;59.258;18.128;2022-08-19T03:03:34;4.10;;;4.00;;
10729;SDS011;5416;59.258;18.128;2022-08-19T03:06:05;3.83;;;3.73;;
10729;SDS011;5416;59.258;18.128;2022-08-19T03:08:34;3.80;;;3.70;;
10729;SDS011;5416;59.258;18.128;2022-08-19T03:11:01;4.40;;;4.30;;
10729;SDS011;5416;59.258;18.128;2022-08-19T03:13:29;3.70;;;3.60;;
10729;SDS011;5416;59.258;18.128;2022-08-19T03:15:56;4.07;;;3.97;;
10729;SDS011;5416;59.258;18.128;2022-08-19T03:18:23;4.38;;;4.28;;
10729;SDS011;5416;59.258;18.128;2022-08-19T03:20:51;3.93;;;3.83;;
10729;SDS011;5416;59.258;18.128;2022-08-19T03:23:20;3.75;;;3.65;;
10729;SDS011;5416;59.258;18.128;2022-08-19T03:25:50;4.03;;;3.93;;
10729;SDS011;5416;59.258;18.128;2022-08-19T03:28:18;4.20;;;4.10;;
10729;SDS011;5416;59.258;18.128;2022-08-19T03:30:54;3.72;;;3.63;;
10729;SDS011;5416;59.258;18.128;2022-08-19T03:33:22;3.95;;;3.85;;
10729;SDS011;5416;59.258;18.128;2022-08-19T03:35:59;4.25;;;4.15;;
10729;SDS011;5416;59.258;18.128;2022-08-19T03:38:26;4.00;;;3.90;;
10729;SDS011;5416;59.258;18.128;2022-08-19T03:40:55;4.20;;;4.10;;
10729;SDS011;5416;59.258;18.128;2022-08-19T03:43:22;4.30;;;4.20;;
10729;SDS011;5416;59.258;18.128;2022-08-19T03:45:58;4.10;;;4.00;;
10729;SDS011;5416;59.258;18.128;2022-08-19T03:48:26;3.85;;;3.75;;
10729;SDS011;5416;59.258;18.128;2022-08-19T03:50:55;4.00;;;3.90;;
10729;SDS011;5416;59.258;18.128;2022-08-19T03:53:23;3.80;;;3.70;;
10729;SDS011;5416;59.258;18.128;2022-08-19T03:55:51;3.90;;;3.80;;
10729;SDS011;5416;59.258;18.128;2022-08-19T03:58:19;4.10;;;4.00;;
10729;SDS011;5416;59.258;18.128;2022-08-19T04:00:47;4.40;;;4.30;;
10729;SDS011;5416;59.258;18.128;2022-08-19T04:03:14;3.60;;;3.50;;
10729;SDS011;5416;59.258;18.128;2022-08-19T04:05:43;4.03;;;3.93;;
10729;SDS011;5416;59.258;18.128;2022-08-19T04:08:10;3.65;;;3.55;;
10729;SDS011;5416;59.258;18.128;2022-08-19T04:10:38;3.88;;;3.78;;
10729;SDS011;5416;59.258;18.128;2022-08-19T04:13:06;4.05;;;3.95;;
10729;SDS011;5416;59.258;18.128;2022-08-19T04:15:38;3.85;;;3.75;;
10729;SDS011;5416;59.258;18.128;2022-08-19T04:18:06;4.03;;;3.93;;
10729;SDS011;5416;59.258;18.128;2022-08-19T04:20:38;4.10;;;4.00;;
10729;SDS011;5416;59.258;18.128;2022-08-19T04:23:05;3.97;;;3.87;;
10729;SDS011;5416;59.258;18.128;2022-08-19T04:25:34;3.90;;;3.80;;
10729;SDS011;5416;59.258;18.128;2022-08-19T04:28:02;4.20;;;4.10;;
10729;SDS011;5416;59.258;18.128;2022-08-19T04:30:29;3.75;;;3.65;;
10729;SDS011;5416;59.258;18.128;2022-08-19T04:32:58;4.07;;;3.97;;
10729;SDS011;5416;59.258;18.128;2022-08-19T04:35:25;4.00;;;3.90;;
10729;SDS011;5416;59.258;18.128;2022-08-19T04:37:52;3.93;;;3.83;;
10729;SDS011;5416;59.258;18.128;2022-08-19T04:40:20;3.70;;;3.60;;
10729;SDS011;5416;59.258;18.128;2022-08-19T04:43:04;4.00;;;3.90;;
10729;SDS011;5416;59.258;18.128;2022-08-19T04:45:32;4.05;;;3.95;;
10729;SDS011;5416;59.258;18.128;2022-08-19T04:48:00;4.22;;;4.13;;
10729;SDS011;5416;59.258;18.128;2022-08-19T04:50:28;3.90;;;3.80;;
10729;SDS011;5416;59.258;18.128;2022-08-19T04:52:55;4.00;;;3.90;;
10729;SDS011;5416;59.258;18.128;2022-08-19T04:55:22;4.25;;;4.15;;
10729;SDS011;5416;59.258;18.128;2022-08-19T04:57:50;4.00;;;3.90;;
10729;SDS011;5416;59.258;18.128;2022-08-19T05:00:17;4.32;;;4.22;;
10729;SDS011;5416;59.258;18.128;2022-08-19T05:02:45;4.03;;;3.92;;
10729;SDS011;5416;59.258;18.128;2022-08-19T05:05:15;4.00;;;3.90;;
10729;SDS011;5416;59.258;18.128;2022-08-19T05:07:43;4.35;;;4.25;;
10729;SDS011;5416;59.258;18.128;2022-08-19T05:10:10;4.38;;;4.28;;
10729;SDS011;5416;59.258;18.128;2022-08-19T05:12:37;4.25;;;4.15;;
10729;SDS011;5416;59.258;18.128;2022-08-19T05:15:05;4.05;;;3.95;;
10729;SDS011;5416;59.258;18.128;2022-08-19T05:17:34;4.17;;;4.07;;
10729;SDS011;5416;59.258;18.128;2022-08-19T05:20:01;4.13;;;4.03;;
10729;SDS011;5416;59.258;18.128;2022-08-19T05:22:59;3.77;;;3.67;;
10729;SDS011;5416;59.258;18.128;2022-08-19T05:25:26;4.20;;;4.10;;
10729;SDS011;5416;59.258;18.128;2022-08-19T05:27:53;3.90;;;3.80;;
10729;SDS011;5416;59.258;18.128;2022-08-19T05:30:21;4.40;;;4.30;;
10729;SDS011;5416;59.258;18.128;2022-08-19T05:32:48;4.05;;;3.95;;
10729;SDS011;5416;59.258;18.128;2022-08-19T05:35:15;3.85;;;3.75;;
10729;SDS011;5416;59.258;18.128;2022-08-19T05:37:44;4.05;;;3.95;;
10729;SDS011;5416;59.258;18.128;2022-08-19T05:40:12;3.80;;;3.70;;
10729;SDS011;5416;59.258;18.128;2022-08-19T05:42:40;3.60;;;3.50;;
10729;SDS011;5416;59.258;18.128;2022-08-19T05:45:07;3.40;;;3.30;;
10729;SDS011;5416;59.258;18.128;2022-08-19T05:47:35;3.72;;;3.63;;
10729;SDS011;5416;59.258;18.128;2022-08-19T05:50:03;3.20;;;3.10;;
10729;SDS011;5416;59.258;18.128;2022-08-19T05:52:30;3.45;;;3.35;;
10729;SDS011;5416;59.258;18.128;2022-08-19T05:54:58;3.30;;;3.20;;
10729;SDS011;5416;59.258;18.128;2022-08-19T05:57:26;3.20;;;3.10;;
10729;SDS011;5416;59.258;18.128;2022-08-19T05:59:54;3.00;;;2.90;;
10729;SDS011;5416;59.258;18.128;2022-08-19T06:02:22;3.13;;;3.03;;
10729;SDS011;5416;59.258;18.128;2022-08-19T06:04:49;2.70;;;2.60;;
10729;SDS011;5416;59.258;18.128;2022-08-19T06:07:17;2.72;;;2.63;;
10729;SDS011;5416;59.258;18.128;2022-08-19T06:09:44;2.78;;;2.67;;
10729;SDS011;5416;59.258;18.128;2022-08-19T06:12:11;2.72;;;2.63;;
10729;SDS011;5416;59.258;18.128;2022-08-19T06:14:40;2.65;;;2.55;;
10729;SDS011;5416;59.258;18.128;2022-08-19T06:17:07;2.70;;;2.60;;
10729;SDS011;5416;59.258;18.128;2022-08-19T06:19:35;2.50;;;2.40;;
10729;SDS011;5416;59.258;18.128;2022-08-19T06:22:06;2.60;;;2.50;;
10729;SDS011;5416;59.258;18.128;2022-08-19T06:24:33;2.50;;;2.40;;
10729;SDS011;5416;59.258;18.128;2022-08-19T06:27:01;2.70;;;2.60;;
10729;SDS011;5416;59.258;18.128;2022-08-19T06:29:30;2.67;;;2.58;;
10729;SDS011;5416;59.258;18.128;2022-08-19T06:32:00;2.60;;;2.50;;
10729;SDS011;5416;59.258;18.128;2022-08-19T06:34:29;2.80;;;2.70;;
10729;SDS011;5416;59.258;18.128;2022-08-19T06:36:57;2.50;;;2.40;;
10729;SDS011;5416;59.258;18.128;2022-08-19T06:39:25;2.60;;;2.50;;
10729;SDS011;5416;59.258;18.128;2022-08-19T06:41:54;2.80;;;2.70;;
10729;SDS011;5416;59.258;18.128;2022-08-19T06:44:22;2.90;;;2.80;;
10729;SDS011;5416;59.258;18.128;2022-08-19T06:46:50;2.80;;;2.70;;
10729;SDS011;5416;59.258;18.128;2022-08-19T06:49:19;2.80;;;2.70;;
10729;SDS011;5416;59.258;18.128;2022-08-19T06:51:47;2.78;;;2.67;;
10729;SDS011;5416;59.258;18.128;2022-08-19T06:54:15;2.90;;;2.80;;
10729;SDS011;5416;59.258;18.128;2022-08-19T06:56:43;2.90;;;2.80;;
10729;SDS011;5416;59.258;18.128;2022-08-19T06:59:11;2.90;;;2.80;;
10729;SDS011;5416;59.258;18.128;2022-08-19T07:01:40;3.10;;;3.00;;
10729;SDS011;5416;59.258;18.128;2022-08-19T07:04:07;2.95;;;2.85;;
10729;SDS011;5416;59.258;18.128;2022-08-19T07:06:36;2.80;;;2.70;;
10729;SDS011;5416;59.258;18.128;2022-08-19T07:09:04;2.90;;;2.80;;
10729;SDS011;5416;59.258;18.128;2022-08-19T07:11:32;2.90;;;2.80;;
10729;SDS011;5416;59.258;18.128;2022-08-19T07:13:59;2.67;;;2.58;;
10729;SDS011;5416;59.258;18.128;2022-08-19T07:16:26;2.85;;;2.75;;
10729;SDS011;5416;59.258;18.128;2022-08-19T07:18:54;2.80;;;2.70;;
10729;SDS011;5416;59.258;18.128;2022-08-19T07:21:22;2.60;;;2.50;;
10729;SDS011;5416;59.258;18.128;2022-08-19T07:23:53;2.90;;;2.80;;
10729;SDS011;5416;59.258;18.128;2022-08-19T07:26:22;2.80;;;2.70;;
10729;SDS011;5416;59.258;18.128;2022-08-19T07:28:49;2.70;;;2.60;;
10729;SDS011;5416;59.258;18.128;2022-08-19T07:31:17;2.60;;;2.50;;
10729;SDS011;5416;59.258;18.128;2022-08-19T07:33:45;2.70;;;2.60;;
10729;SDS011;5416;59.258;18.128;2022-08-19T07:36:13;2.60;;;2.50;;
10729;SDS011;5416;59.258;18.128;2022-08-19T07:38:43;2.50;;;2.40;;
10729;SDS011;5416;59.258;18.128;2022-08-19T07:41:14;2.53;;;2.43;;
10729;SDS011;5416;59.258;18.128;2022-08-19T07:43:42;2.92;;;2.83;;
10729;SDS011;5416;59.258;18.128;2022-08-19T07:46:11;2.60;;;2.50;;
10729;SDS011;5416;59.258;18.128;2022-08-19T07:48:39;2.55;;;2.45;;
10729;SDS011;5416;59.258;18.128;2022-08-19T07:51:07;2.97;;;2.88;;
10729;SDS011;5416;59.258;18.128;2022-08-19T07:53:35;2.83;;;2.72;;
10729;SDS011;5416;59.258;18.128;2022-08-19T07:56:03;2.80;;;2.70;;
10729;SDS011;5416;59.258;18.128;2022-08-19T07:58:32;2.60;;;2.50;;
10729;SDS011;5416;59.258;18.128;2022-08-19T08:01:00;2.72;;;2.63;;
10729;SDS011;5416;59.258;18.128;2022-08-19T08:03:28;2.50;;;2.40;;
10729;SDS011;5416;59.258;18.128;2022-08-19T08:06:14;2.80;;;2.70;;
10729;SDS011;5416;59.258;18.128;2022-08-19T08:09:15;2.92;;;2.83;;
10729;SDS011;5416;59.258;18.128;2022-08-19T08:11:47;2.85;;;2.75;;
10729;SDS011;5416;59.258;18.128;2022-08-19T08:14:16;2.80;;;2.70;;
10729;SDS011;5416;59.258;18.128;2022-08-19T08:16:44;2.83;;;2.72;;
10729;SDS011;5416;59.258;18.128;2022-08-19T08:19:12;2.92;;;2.83;;
10729;SDS011;5416;59.258;18.128;2022-08-19T08:21:40;3.10;;;3.00;;
10729;SDS011;5416;59.258;18.128;2022-08-19T08:24:08;2.80;;;2.70;;
10729;SDS011;5416;59.258;18.128;2022-08-19T08:26:35;2.70;;;2.60;;
10729;SDS011;5416;59.258;18.128;2022-08-19T08:29:03;2.67;;;2.58;;
10729;SDS011;5416;59.258;18.128;2022-08-19T08:31:31;2.50;;;2.40;;
10729;SDS011;5416;59.258;18.128;2022-08-19T08:33:59;2.60;;;2.50;;
10729;SDS011;5416;59.258;18.128;2022-08-19T08:36:26;2.70;;;2.60;;
10729;SDS011;5416;59.258;18.128;2022-08-19T08:38:54;2.60;;;2.50;;
10729;SDS011;5416;59.258;18.128;2022-08-19T08:41:30;2.22;;;2.13;;
10729;SDS011;5416;59.258;18.128;2022-08-19T08:43:58;2.22;;;2.13;;
10729;SDS011;5416;59.258;18.128;2022-08-19T08:46:28;2.40;;;2.30;;
10729;SDS011;5416;59.258;18.128;2022-08-19T08:48:59;2.45;;;2.35;;
10729;SDS011;5416;59.258;18.128;2022-08-19T08:51:29;2.15;;;2.10;;
10729;SDS011;5416;59.258;18.128;2022-08-19T08:53:59;2.08;;;2.00;;
10729;SDS011;5416;59.258;18.128;2022-08-19T08:56:26;2.22;;;2.13;;
10729;SDS011;5416;59.258;18.128;2022-08-19T08:58:55;2.23;;;2.13;;
10729;SDS011;5416;59.258;18.128;2022-08-19T09:01:24;2.20;;;2.10;;
10729;SDS011;5416;59.258;18.128;2022-08-19T09:03:51;2.25;;;2.15;;
10729;SDS011;5416;59.258;18.128;2022-08-19T09:06:22;2.40;;;2.30;;
10729;SDS011;5416;59.258;18.128;2022-08-19T09:08:55;2.40;;;2.30;;
10729;SDS011;5416;59.258;18.128;2022-08-19T09:11:32;2.03;;;2.00;;
10729;SDS011;5416;59.258;18.128;2022-08-19T09:14:05;2.40;;;2.30;;
10729;SDS011;5416;59.258;18.128;2022-08-19T09:16:35;2.60;;;2.50;;
10729;SDS011;5416;59.258;18.128;2022-08-19T09:19:06;2.60;;;2.50;;
10729;SDS011;5416;59.258;18.128;2022-08-19T09:21:37;2.90;;;2.80;;
10729;SDS011;5416;59.258;18.128;2022-08-19T09:24:04;2.38;;;2.28;;
10729;SDS011;5416;59.258;18.128;2022-08-19T09:26:32;2.05;;;2.00;;
10729;SDS011;5416;59.258;18.128;2022-08-19T09:28:59;1.80;;;1.80;;
10729;SDS011;5416;59.258;18.128;2022-08-19T09:31:30;2.15;;;2.05;;
10729;SDS011;5416;59.258;18.128;2022-08-19T09:33:58;1.90;;;1.90;;
10729;SDS011;5416;59.258;18.128;2022-08-19T09:36:29;1.88;;;1.88;;
10729;SDS011;5416;59.258;18.128;2022-08-19T09:39:02;1.80;;;1.80;;
10729;SDS011;5416;59.258;18.128;2022-08-19T09:41:30;1.75;;;1.75;;
10729;SDS011;5416;59.258;18.128;2022-08-19T09:43:58;1.80;;;1.70;;
10729;SDS011;5416;59.258;18.128;2022-08-19T09:46:27;2.20;;;2.10;;
10729;SDS011;5416;59.258;18.128;2022-08-19T09:48:59;2.40;;;2.30;;
10729;SDS011;5416;59.258;18.128;2022-08-19T09:51:26;2.30;;;2.20;;
10729;SDS011;5416;59.258;18.128;2022-08-19T09:53:54;2.28;;;2.17;;
10729;SDS011;5416;59.258;18.128;2022-08-19T09:56:23;2.40;;;2.30;;
10729;SDS011;5416;59.258;18.128;2022-08-19T09:58:51;2.17;;;2.08;;
10729;SDS011;5416;59.258;18.128;2022-08-19T10:01:19;2.30;;;2.20;;
10729;SDS011;5416;59.258;18.128;2022-08-19T10:03:48;2.20;;;2.10;;
10729;SDS011;5416;59.258;18.128;2022-08-19T10:06:16;2.30;;;2.20;;
10729;SDS011;5416;59.258;18.128;2022-08-19T10:08:45;2.20;;;2.10;;
10729;SDS011;5416;59.258;18.128;2022-08-19T10:11:13;2.40;;;2.30;;
10729;SDS011;5416;59.258;18.128;2022-08-19T10:13:43;2.05;;;2.00;;
10729;SDS011;5416;59.258;18.128;2022-08-19T10:16:12;2.42;;;2.33;;
10729;SDS011;5416;59.258;18.128;2022-08-19T10:18:41;2.50;;;2.40;;
10729;SDS011;5416;59.258;18.128;2022-08-19T10:21:09;2.30;;;2.20;;
10729;SDS011;5416;59.258;18.128;2022-08-19T10:23:37;2.50;;;2.40;;
10729;SDS011;5416;59.258;18.128;2022-08-19T10:26:05;2.60;;;2.50;;
10729;SDS011;5416;59.258;18.128;2022-08-19T10:28:33;2.50;;;2.40;;
10729;SDS011;5416;59.258;18.128;2022-08-19T10:31:06;2.38;;;2.28;;
10729;SDS011;5416;59.258;18.128;2022-08-19T10:33:34;2.50;;;2.40;;
10729;SDS011;5416;59.258;18.128;2022-08-19T10:36:03;2.80;;;2.70;;
10729;SDS011;5416;59.258;18.128;2022-08-19T10:38:30;2.80;;;2.70;;
10729;SDS011;5416;59.258;18.128;2022-08-19T10:41:05;3.00;;;2.90;;
10729;SDS011;5416;59.258;18.128;2022-08-19T10:43:33;2.80;;;2.70;;
10729;SDS011;5416;59.258;18.128;2022-08-19T10:46:03;2.78;;;2.67;;
10729;SDS011;5416;59.258;18.128;2022-08-19T10:48:32;2.65;;;2.55;;
10729;SDS011;5416;59.258;18.128;2022-08-19T10:50:59;2.30;;;2.20;;
10729;SDS011;5416;59.258;18.128;2022-08-19T10:53:50;2.42;;;2.33;;
10729;SDS011;5416;59.258;18.128;2022-08-19T10:56:18;2.50;;;2.40;;
10729;SDS011;5416;59.258;18.128;2022-08-19T10:59:03;2.70;;;2.60;;
10729;SDS011;5416;59.258;18.128;2022-08-19T11:01:31;2.50;;;2.40;;
10729;SDS011;5416;59.258;18.128;2022-08-19T11:04:00;2.60;;;2.50;;
10729;SDS011;5416;59.258;18.128;2022-08-19T11:06:28;2.80;;;2.70;;
10729;SDS011;5416;59.258;18.128;2022-08-19T11:08:55;2.95;;;2.85;;
10729;SDS011;5416;59.258;18.128;2022-08-19T11:11:23;3.38;;;3.28;;
10729;SDS011;5416;59.258;18.128;2022-08-19T11:13:51;3.40;;;3.30;;
10729;SDS011;5416;59.258;18.128;2022-08-19T11:16:19;3.13;;;3.03;;
10729;SDS011;5416;59.258;18.128;2022-08-19T11:18:47;2.90;;;2.80;;
10729;SDS011;5416;59.258;18.128;2022-08-19T11:21:17;3.35;;;3.25;;
10729;SDS011;5416;59.258;18.128;2022-08-19T11:23:46;2.93;;;2.83;;
10729;SDS011;5416;59.258;18.128;2022-08-19T11:26:14;3.03;;;2.92;;
10729;SDS011;5416;59.258;18.128;2022-08-19T11:28:42;2.90;;;2.80;;
10729;SDS011;5416;59.258;18.128;2022-08-19T11:31:10;3.10;;;3.00;;
10729;SDS011;5416;59.258;18.128;2022-08-19T11:33:37;3.08;;;2.97;;
10729;SDS011;5416;59.258;18.128;2022-08-19T11:36:05;3.20;;;3.10;;
10729;SDS011;5416;59.258;18.128;2022-08-19T11:38:34;2.90;;;2.80;;
10729;SDS011;5416;59.258;18.128;2022-08-19T11:41:02;2.90;;;2.80;;
10729;SDS011;5416;59.258;18.128;2022-08-19T11:43:30;3.00;;;2.90;;
10729;SDS011;5416;59.258;18.128;2022-08-19T11:45:58;3.10;;;3.00;;
10729;SDS011;5416;59.258;18.128;2022-08-19T11:48:25;3.20;;;3.10;;
10729;SDS011;5416;59.258;18.128;2022-08-19T11:50:53;3.20;;;3.10;;
10729;SDS011;5416;59.258;18.128;2022-08-19T11:53:21;3.30;;;3.20;;
10729;SDS011;5416;59.258;18.128;2022-08-19T11:55:50;3.20;;;3.10;;
10729;SDS011;5416;59.258;18.128;2022-08-19T11:58:20;3.30;;;3.20;;
10729;SDS011;5416;59.258;18.128;2022-08-19T12:00:48;3.30;;;3.20;;
10729;SDS011;5416;59.258;18.128;2022-08-19T12:03:15;3.20;;;3.10;;
10729;SDS011;5416;59.258;18.128;2022-08-19T12:05:43;3.00;;;2.90;;
10729;SDS011;5416;59.258;18.128;2022-08-19T12:08:11;2.97;;;2.88;;
10729;SDS011;5416;59.258;18.128;2022-08-19T12:10:39;3.10;;;3.00;;
10729;SDS011;5416;59.258;18.128;2022-08-19T12:13:08;2.90;;;2.80;;
10729;SDS011;5416;59.258;18.128;2022-08-19T12:15:36;3.10;;;3.00;;
10729;SDS011;5416;59.258;18.128;2022-08-19T12:18:05;3.50;;;3.40;;
10729;SDS011;5416;59.258;18.128;2022-08-19T12:20:33;3.70;;;3.60;;
10729;SDS011;5416;59.258;18.128;2022-08-19T12:23:01;3.47;;;3.38;;
10729;SDS011;5416;59.258;18.128;2022-08-19T12:25:28;3.35;;;3.25;;
10729;SDS011;5416;59.258;18.128;2022-08-19T12:27:56;3.45;;;3.35;;
10729;SDS011;5416;59.258;18.128;2022-08-19T12:30:25;3.70;;;3.60;;
10729;SDS011;5416;59.258;18.128;2022-08-19T12:32:52;3.80;;;3.70;;
10729;SDS011;5416;59.258;18.128;2022-08-19T12:35:20;3.50;;;3.40;;
10729;SDS011;5416;59.258;18.128;2022-08-19T12:37:47;3.65;;;3.55;;
10729;SDS011;5416;59.258;18.128;2022-08-19T12:40:15;3.50;;;3.40;;
10729;SDS011;5416;59.258;18.128;2022-08-19T12:42:44;3.50;;;3.40;;
10729;SDS011;5416;59.258;18.128;2022-08-19T12:45:12;3.40;;;3.30;;
10729;SDS011;5416;59.258;18.128;2022-08-19T12:47:42;3.40;;;3.30;;
10729;SDS011;5416;59.258;18.128;2022-08-19T12:50:11;3.30;;;3.20;;
10729;SDS011;5416;59.258;18.128;2022-08-19T12:52:38;3.47;;;3.37;;
10729;SDS011;5416;59.258;18.128;2022-08-19T12:55:08;3.42;;;3.33;;
10729;SDS011;5416;59.258;18.128;2022-08-19T12:57:35;3.33;;;3.22;;
10729;SDS011;5416;59.258;18.128;2022-08-19T13:00:04;3.30;;;3.20;;
10729;SDS011;5416;59.258;18.128;2022-08-19T13:02:34;3.55;;;3.45;;
10729;SDS011;5416;59.258;18.128;2022-08-19T13:05:03;3.50;;;3.40;;
10729;SDS011;5416;59.258;18.128;2022-08-19T13:07:31;3.30;;;3.20;;
10729;SDS011;5416;59.258;18.128;2022-08-19T13:09:59;3.63;;;3.53;;
10729;SDS011;5416;59.258;18.128;2022-08-19T13:12:27;3.60;;;3.50;;
10729;SDS011;5416;59.258;18.128;2022-08-19T13:14:54;3.30;;;3.20;;
10729;SDS011;5416;59.258;18.128;2022-08-19T13:17:22;3.50;;;3.40;;
10729;SDS011;5416;59.258;18.128;2022-08-19T13:19:49;4.07;;;3.97;;
10729;SDS011;5416;59.258;18.128;2022-08-19T13:22:18;3.60;;;3.50;;
10729;SDS011;5416;59.258;18.128;2022-08-19T13:24:45;3.83;;;3.73;;
10729;SDS011;5416;59.258;18.128;2022-08-19T13:27:13;4.20;;;4.10;;
10729;SDS011;5416;59.258;18.128;2022-08-19T13:29:40;3.95;;;3.85;;
10729;SDS011;5416;59.258;18.128;2022-08-19T13:32:25;3.80;;;3.70;;
10729;SDS011;5416;59.258;18.128;2022-08-19T13:35:10;4.13;;;4.03;;
10729;SDS011;5416;59.258;18.128;2022-08-19T13:37:39;4.60;;;4.40;;
10729;SDS011;5416;59.258;18.128;2022-08-19T13:40:11;3.90;;;3.80;;
10729;SDS011;5416;59.258;18.128;2022-08-19T13:42:42;3.95;;;3.85;;
10729;SDS011;5416;59.258;18.128;2022-08-19T13:45:12;4.15;;;4.00;;
10729;SDS011;5416;59.258;18.128;2022-08-19T13:47:40;4.28;;;4.18;;
10729;SDS011;5416;59.258;18.128;2022-08-19T13:50:10;4.10;;;4.00;;
10729;SDS011;5416;59.258;18.128;2022-08-19T13:52:39;3.90;;;3.80;;
10729;SDS011;5416;59.258;18.128;2022-08-19T13:55:06;3.75;;;3.65;;
10729;SDS011;5416;59.258;18.128;2022-08-19T13:57:34;4.10;;;4.00;;
10729;SDS011;5416;59.258;18.128;2022-08-19T14:00:04;4.13;;;4.03;;
10729;SDS011;5416;59.258;18.128;2022-08-19T14:02:33;3.85;;;3.75;;
10729;SDS011;5416;59.258;18.128;2022-08-19T14:05:00;4.13;;;4.03;;
10729;SDS011;5416;59.258;18.128;2022-08-19T14:07:27;4.10;;;4.00;;
10729;SDS011;5416;59.258;18.128;2022-08-19T14:09:56;4.15;;;4.05;;
10729;SDS011;5416;59.258;18.128;2022-08-19T14:12:23;4.00;;;3.90;;
10729;SDS011;5416;59.258;18.128;2022-08-19T14:14:51;3.90;;;3.80;;
10729;SDS011;5416;59.258;18.128;2022-08-19T14:17:18;4.35;;;4.25;;
10729;SDS011;5416;59.258;18.128;2022-08-19T14:19:46;4.30;;;4.20;;
10729;SDS011;5416;59.258;18.128;2022-08-19T14:22:13;3.88;;;3.78;;
10729;SDS011;5416;59.258;18.128;2022-08-19T14:24:40;4.40;;;4.30;;
10729;SDS011;5416;59.258;18.128;2022-08-19T14:27:09;4.07;;;3.97;;
10729;SDS011;5416;59.258;18.128;2022-08-19T14:29:36;4.10;;;4.00;;
10729;SDS011;5416;59.258;18.128;2022-08-19T14:32:04;4.07;;;3.97;;
10729;SDS011;5416;59.258;18.128;2022-08-19T14:34:31;4.13;;;4.03;;
10729;SDS011;5416;59.258;18.128;2022-08-19T14:36:59;3.92;;;3.83;;
10729;SDS011;5416;59.258;18.128;2022-08-19T14:39:26;4.05;;;3.95;;
10729;SDS011;5416;59.258;18.128;2022-08-19T14:41:53;4.28;;;4.18;;
10729;SDS011;5416;59.258;18.128;2022-08-19T14:44:22;4.23;;;4.13;;
10729;SDS011;5416;59.258;18.128;2022-08-19T14:46:49;4.03;;;3.92;;
10729;SDS011;5416;59.258;18.128;2022-08-19T14:49:17;4.57;;;4.40;;
10729;SDS011;5416;59.258;18.128;2022-08-19T14:51:45;4.25;;;4.15;;
10729;SDS011;5416;59.258;18.128;2022-08-19T14:54:12;3.75;;;3.65;;
10729;SDS011;5416;59.258;18.128;2022-08-19T14:56:40;4.30;;;4.20;;